Terminal Aerodrome Forecast
Issued by NWS

Home | Current Version | Previous Version | Text Only | Print | Product List | Glossary On
Versions: 1 2 3 4 5 6 7 8 9 10 11 12 13 14 15 16 17 18 19 20
000
FTUS42 KJAX 220525
TAFCRG
TAF
KCRG 220525Z 2206/2306 09010KT P6SM SCT035 OVC050
     FM220900 07007KT P6SM VCSH SCT020 BKN035 OVC060
     FM221300 10013G21KT P6SM VCSH BKN020 OVC070
     FM221600 09016G26KT P6SM VCSH BKN030 OVC060 PROB30 2220/2224
      3SM +SHRA BR SCT010 BKN020 OVC040
     FM230000 14013KT 3SM SHRA SCT010 OVC020=

USA.gov is the U.S. government's official web portal to all federal, state and local government web resources and services.